Time;durP1;ratioP1;P1;durP2;ratioP2;P2;SDS_P1;SDS_P2;PMS_P1;PMS_P2;Temp;Humidity;BMP_temperature;BMP_pressure;BME280_temperature;BME280_humidity;BME280_pressure;Samples;Min_cycle;Max_cycle;Signal;HPM_P1;HPM_P2
2022/03/18 00:00:39;;;;;;;;;;;;;;;;;;2090226;28;19960;-49
2022/03/18 00:01:40;;;;;;;;;;;;;;;;;;2088319;28;19925;-44
2022/03/18 00:02:41;;;;;;;;;;;;;;;;;;2089257;28;19924;-44
2022/03/18 00:03:43;;;;;;;;;;;;;;;;;;2088525;28;19925;-45
2022/03/18 00:04:45;;;;;;;;;;;;;;;;;;2088511;28;20012;-44
2022/03/18 00:05:46;;;;;;;;;;;;;;;;;;2088475;28;19925;-44
2022/03/18 00:06:47;;;;;;;;;;;;;;;;;;2088871;28;19932;-44
2022/03/18 00:07:48;;;;;;;;;;;;;;;;;;2089131;28;19933;-45
2022/03/18 00:08:50;;;;;;;;;;;;;;;;;;2088786;28;19958;-45
2022/03/18 00:09:51;;;;;;;;;;;;;;;;;;2089265;28;20389;-45
2022/03/18 00:10:56;;;;;;;;;;;;;;;;;;2087829;28;19951;-45
2022/03/18 00:11:57;;;;;;;;;;;;;;;;;;2088283;28;20362;-44
2022/03/18 00:12:58;;;;;;;;;;;;;;;;;;2089339;28;19990;-45
2022/03/18 00:14:02;;;;;;;;;;;;;;;;;;2088793;28;19986;-44
2022/03/18 00:15:04;;;;;;;;;;;;;;;;;;2089186;28;20306;-45
2022/03/18 00:16:05;;;;;;;;;;;;;;;;;;2088933;28;19925;-45
2022/03/18 00:17:06;;;;;;;;;;;;;;;;;;2089611;28;19979;-44
2022/03/18 00:18:08;;;;;;;;;;;;;;;;;;2089209;28;19964;-45
2022/03/18 00:19:09;;;;;;;;;;;;;;;;;;2088945;28;19948;-44
2022/03/18 00:20:10;;;;;;;;;;;;;;;;;;2089090;28;20023;-45
2022/03/18 00:21:12;;;;;;;;;;;;;;;;;;2089036;28;19964;-44
2022/03/18 00:22:13;;;;;;;;;;;;;;;;;;2089237;28;19990;-50
2022/03/18 00:23:15;;;;;;;;;;;;;;;;;;2089683;28;19947;-49
2022/03/18 00:24:16;;;;;;;;;;;;;;;;;;2089737;28;19925;-49
2022/03/18 00:25:17;;;;;;;;;;;;;;;;;;2090207;28;19979;-51
2022/03/18 00:26:19;;;;;;;;;;;;;;;;;;2088617;28;19925;-48
2022/03/18 00:27:20;;;;;;;;;;;;;;;;;;2088946;28;19933;-48
2022/03/18 00:28:22;;;;;;;;;;;;;;;;;;2088975;28;19944;-49
2022/03/18 00:29:23;;;;;;;;;;;;;;;;;;2088662;28;19925;-48
2022/03/18 00:30:24;;;;;;;;;;;;;;;;;;2089311;28;19975;-48
2022/03/18 00:31:25;;;;;;;;;;;;;;;;;;2088186;28;20354;-48
2022/03/18 00:32:26;;;;;;;;;;;;;;;;;;2087276;28;20358;-48
2022/03/18 00:33:27;;;;;;;;;;;;;;;;;;2088184;28;20012;-47
2022/03/18 00:34:28;;;;;;;;;;;;;;;;;;2087862;28;19928;-44
2022/03/18 00:35:30;;;;;;;;;;;;;;;;;;2088769;28;19958;-44
2022/03/18 00:36:31;;;;;;;;;;;;;;;;;;2088832;28;19979;-46
2022/03/18 00:37:32;;;;;;;;;;;;;;;;;;2089139;28;20059;-44
2022/03/18 00:38:34;;;;;;;;;;;;;;;;;;2088838;28;19925;-45
2022/03/18 00:39:35;;;;;;;;;;;;;;;;;;2087620;28;20458;-44
2022/03/18 00:40:36;;;;;;;;;;;;;;;;;;2088507;28;20366;-44
2022/03/18 00:41:37;;;;;;;;;;;;;;;;;;2088670;28;20024;-44
2022/03/18 00:42:38;;;;;;;;;;;;;;;;;;2089853;28;19951;-44
2022/03/18 00:43:40;;;;;;;;;;;;;;;;;;2089494;28;19977;-44
2022/03/18 00:44:41;;;;;;;;;;;;;;;;;;2088797;28;19925;-44
2022/03/18 00:45:42;;;;;;;;;;;;;;;;;;2088635;28;19977;-44
2022/03/18 00:46:43;;;;;;;;;;;;;;;;;;2087840;28;20020;-44
2022/03/18 00:53:02;;;;;;;;;;;;;;;;;;2088837;28;20404;-44
2022/03/18 00:54:03;;;;;;;;;;;;;;;;;;2088832;28;19994;-44
2022/03/18 00:55:04;;;;;;;;;;;;;;;;;;2089162;28;19925;-44
2022/03/18 00:56:05;;;;;;;;;;;;;;;;;;2088877;28;19947;-44
2022/03/18 00:57:06;;;;;;;;;;;;;;;;;;2089949;28;20008;-45
2022/03/18 00:58:10;;;;;;;;;;;;;;;;;;2089466;28;20023;-44
2022/03/18 00:59:11;;;;;;;;;;;;;;;;;;2087602;28;20006;-44
2022/03/18 01:00:12;;;;;;;;;;;;;;;;;;2088500;28;20484;-45
2022/03/18 01:01:13;;;;;;;;;;;;;;;;;;2088652;28;20016;-44
2022/03/18 01:02:14;;;;;;;;;;;;;;;;;;2088966;28;19925;-44
2022/03/18 01:03:16;;;;;;;;;;;;;;;;;;2088770;28;19932;-44
2022/03/18 01:04:17;;;;;;;;;;;;;;;;;;2088579;28;19924;-44
2022/03/18 01:05:19;;;;;;;;;;;;;;;;;;2089058;28;20397;-44
2022/03/18 01:06:20;;;;;;;;;;;;;;;;;;2089356;28;20015;-49
2022/03/18 01:07:21;;;;;;;;;;;;;;;;;;2088656;28;19933;-48
2022/03/18 01:08:22;;;;;;;;;;;;;;;;;;2089137;28;19970;-50
2022/03/18 01:09:23;;;;;;;;;;;;;;;;;;2088630;28;20300;-48
2022/03/18 01:10:24;;;;;;;;;;;;;;;;;;2088974;28;20066;-48
2022/03/18 01:11:25;;;;;;;;;;;;;;;;;;2088777;28;20011;-50
2022/03/18 01:12:27;;;;;;;;;;;;;;;;;;2088685;28;20015;-48
2022/03/18 01:13:28;;;;;;;;;;;;;;;;;;2088964;28;19936;-48
2022/03/18 01:14:29;;;;;;;;;;;;;;;;;;2087269;28;20309;-50
2022/03/18 01:15:30;;;;;;;;;;;;;;;;;;2088800;28;20019;-49
2022/03/18 01:16:31;;;;;;;;;;;;;;;;;;2088754;28;20317;-44
2022/03/18 01:17:33;;;;;;;;;;;;;;;;;;2088769;28;20310;-44
2022/03/18 01:18:34;;;;;;;;;;;;;;;;;;2088626;28;20016;-44
2022/03/18 01:19:35;;;;;;;;;;;;;;;;;;2088246;28;20374;-44
2022/03/18 01:20:36;;;;;;;;;;;;;;;;;;2088366;28;19967;-44
2022/03/18 01:21:37;;;;;;;;;;;;;;;;;;2088890;28;20041;-47
2022/03/18 01:22:38;;;;;;;;;;;;;;;;;;2089223;28;19991;-49
2022/03/18 01:23:39;;;;;;;;;;;;;;;;;;2088965;28;20051;-48
2022/03/18 01:24:41;;;;;;;;;;;;;;;;;;2088779;28;20366;-50
2022/03/18 01:25:42;;;;;;;;;;;;;;;;;;2088952;28;20052;-45
2022/03/18 01:26:43;;;;;;;;;;;;;;;;;;2088704;28;20021;-44
2022/03/18 01:27:44;;;;;;;;;;;;;;;;;;2089480;28;20351;-44
2022/03/18 01:28:45;;;;;;;;;;;;;;;;;;2089097;28;19932;-45
2022/03/18 01:29:46;;;;;;;;;;;;;;;;;;2088510;28;20034;-44
2022/03/18 01:30:47;;;;;;;;;;;;;;;;;;2088257;28;19943;-47
2022/03/18 01:31:53;;;;;;;;;;;;;;;;;;2088883;28;19925;-44
2022/03/18 01:32:54;;;;;;;;;;;;;;;;;;2088505;28;19929;-44
2022/03/18 01:33:55;;;;;;;;;;;;;;;;;;2088673;28;19933;-44
2022/03/18 01:34:57;;;;;;;;;;;;;;;;;;2088830;28;19925;-43
2022/03/18 01:35:58;;;;;;;;;;;;;;;;;;2087701;28;19929;-44
2022/03/18 01:36:59;;;;;;;;;;;;;;;;;;2088548;28;19925;-47
2022/03/18 01:38:00;;;;;;;;;;;;;;;;;;2087306;28;20035;-47
2022/03/18 01:39:02;;;;;;;;;;;;;;;;;;2088768;28;20011;-48
2022/03/18 01:40:03;;;;;;;;;;;;;;;;;;2088666;28;19924;-50
2022/03/18 01:41:04;;;;;;;;;;;;;;;;;;2088492;28;20270;-50
2022/03/18 01:42:05;;;;;;;;;;;;;;;;;;2087591;28;20328;-48
2022/03/18 01:43:06;;;;;;;;;;;;;;;;;;2088226;28;20054;-48
2022/03/18 01:44:07;;;;;;;;;;;;;;;;;;2088776;28;19964;-49
2022/03/18 01:45:08;;;;;;;;;;;;;;;;;;2088490;28;20412;-50
2022/03/18 01:46:09;;;;;;;;;;;;;;;;;;2088550;28;19925;-48
2022/03/18 01:47:11;;;;;;;;;;;;;;;;;;2088836;28;19929;-44
2022/03/18 01:48:13;;;;;;;;;;;;;;;;;;2088252;28;19932;-44
2022/03/18 01:49:14;;;;;;;;;;;;;;;;;;2088335;28;20019;-44
2022/03/18 01:50:15;;;;;;;;;;;;;;;;;;2089036;28;20008;-44
2022/03/18 01:51:16;;;;;;;;;;;;;;;;;;2088627;28;19925;-44
2022/03/18 01:52:17;;;;;;;;;;;;;;;;;;2088365;28;19931;-44
2022/03/18 01:53:19;;;;;;;;;;;;;;;;;;2087030;28;19929;-45
2022/03/18 01:55:40;;;;;;;;;;;;;;;;;;2088526;28;20090;-48
2022/03/18 01:56:41;;;;;;;;;;;;;;;;;;2088491;28;20044;-50
2022/03/18 01:57:43;;;;;;;;;;;;;;;;;;2088987;28;20067;-49
2022/03/18 01:58:44;;;;;;;;;;;;;;;;;;2089826;28;20007;-44
2022/03/18 01:59:45;;;;;;;;;;;;;;;;;;2089310;28;20038;-44
2022/03/18 02:00:46;;;;;;;;;;;;;;;;;;2088602;28;20015;-44
2022/03/18 02:01:48;;;;;;;;;;;;;;;;;;2088364;28;19925;-44
2022/03/18 02:02:49;;;;;;;;;;;;;;;;;;2088495;28;19925;-44
2022/03/18 02:03:50;;;;;;;;;;;;;;;;;;2087490;28;19925;-44
2022/03/18 02:04:51;;;;;;;;;;;;;;;;;;2088047;28;19925;-44
2022/03/18 02:05:53;;;;;;;;;;;;;;;;;;2088336;28;20027;-44
2022/03/18 02:06:54;;;;;;;;;;;;;;;;;;2088310;28;19924;-44
2022/03/18 02:07:55;;;;;;;;;;;;;;;;;;2088433;28;20405;-44
2022/03/18 02:08:56;;;;;;;;;;;;;;;;;;2088823;28;20156;-45
2022/03/18 02:09:57;;;;;;;;;;;;;;;;;;2088393;28;20007;-44
2022/03/18 02:10:58;;;;;;;;;;;;;;;;;;2088349;28;20402;-45
2022/03/18 02:12:00;;;;;;;;;;;;;;;;;;2088032;28;20015;-44
2022/03/18 02:13:01;;;;;;;;;;;;;;;;;;2088083;28;19924;-44
2022/03/18 02:14:02;;;;;;;;;;;;;;;;;;2088557;28;19986;-44
2022/03/18 02:15:03;;;;;;;;;;;;;;;;;;2088383;28;20003;-44
2022/03/18 02:16:04;;;;;;;;;;;;;;;;;;2087732;28;20306;-44
2022/03/18 02:17:05;;;;;;;;;;;;;;;;;;2087932;28;20016;-44
2022/03/18 02:18:07;;;;;;;;;;;;;;;;;;2088496;28;19947;-50
2022/03/18 02:19:08;;;;;;;;;;;;;;;;;;2088339;28;20027;-49
2022/03/18 02:20:09;;;;;;;;;;;;;;;;;;2088505;28;20364;-44
2022/03/18 02:21:10;;;;;;;;;;;;;;;;;;2088217;28;20024;-44
2022/03/18 02:22:11;;;;;;;;;;;;;;;;;;2088476;28;20019;-44
2022/03/18 02:23:12;;;;;;;;;;;;;;;;;;2087797;28;19967;-44
2022/03/18 02:24:14;;;;;;;;;;;;;;;;;;2088304;28;19924;-45
2022/03/18 02:25:15;;;;;;;;;;;;;;;;;;2088707;28;20019;-44
2022/03/18 02:26:17;;;;;;;;;;;;;;;;;;2087898;28;20291;-44
2022/03/18 02:27:17;;;;;;;;;;;;;;;;;;2088471;28;20007;-44
2022/03/18 02:28:20;;;;;;;;;;;;;;;;;;2088216;28;20006;-44
2022/03/18 02:29:21;;;;;;;;;;;;;;;;;;2088715;28;20416;-49
2022/03/18 02:30:22;;;;;;;;;;;;;;;;;;2088577;28;19924;-44
2022/03/18 02:31:23;;;;;;;;;;;;;;;;;;2087986;28;19932;-44
2022/03/18 02:32:25;;;;;;;;;;;;;;;;;;2088451;28;20648;-44
2022/03/18 02:33:27;;;;;;;;;;;;;;;;;;2088352;28;19925;-44
2022/03/18 02:34:28;;;;;;;;;;;;;;;;;;2088323;28;20017;-44
2022/03/18 02:35:29;;;;;;;;;;;;;;;;;;2088370;28;20070;-44
2022/03/18 02:36:31;;;;;;;;;;;;;;;;;;2087917;28;20536;-44
2022/03/18 02:37:32;;;;;;;;;;;;;;;;;;2087954;28;20316;-44
2022/03/18 02:38:33;;;;;;;;;;;;;;;;;;2088189;28;19925;-49
2022/03/18 02:39:34;;;;;;;;;;;;;;;;;;2087735;28;20082;-49
2022/03/18 02:40:36;;;;;;;;;;;;;;;;;;2087302;28;20456;-51
2022/03/18 02:41:37;;;;;;;;;;;;;;;;;;2086934;28;19937;-49
2022/03/18 02:42:38;;;;;;;;;;;;;;;;;;2088305;28;20011;-45
2022/03/18 02:43:39;;;;;;;;;;;;;;;;;;2087963;28;20354;-44
2022/03/18 02:44:44;;;;;;;;;;;;;;;;;;2087957;28;20256;-44
2022/03/18 02:45:45;;;;;;;;;;;;;;;;;;2088435;28;20007;-48
2022/03/18 02:46:46;;;;;;;;;;;;;;;;;;2088294;28;19925;-49
2022/03/18 02:47:47;;;;;;;;;;;;;;;;;;2087305;28;19929;-49
2022/03/18 02:48:48;;;;;;;;;;;;;;;;;;2088382;28;20036;-47
2022/03/18 02:49:50;;;;;;;;;;;;;;;;;;2088419;28;19932;-44
2022/03/18 02:50:51;;;;;;;;;;;;;;;;;;2088064;28;20007;-44
2022/03/18 02:51:52;;;;;;;;;;;;;;;;;;2088170;28;19925;-44
2022/03/18 02:52:53;;;;;;;;;;;;;;;;;;2089462;28;19932;-44
2022/03/18 02:53:54;;;;;;;;;;;;;;;;;;2088219;28;20322;-44
2022/03/18 02:54:55;;;;;;;;;;;;;;;;;;2088592;28;19942;-44
2022/03/18 02:55:56;;;;;;;;;;;;;;;;;;2088303;28;20414;-44
2022/03/18 02:56:58;;;;;;;;;;;;;;;;;;2088138;28;20016;-43
2022/03/18 02:57:59;;;;;;;;;;;;;;;;;;2089013;28;19929;-44
2022/03/18 02:59:00;;;;;;;;;;;;;;;;;;2089173;28;19933;-48
2022/03/18 03:00:01;;;;;;;;;;;;;;;;;;2088244;28;20071;-48
2022/03/18 03:01:03;;;;;;;;;;;;;;;;;;2089501;28;20016;-44
2022/03/18 03:02:04;;;;;;;;;;;;;;;;;;2087993;28;19980;-43
2022/03/18 03:03:06;;;;;;;;;;;;;;;;;;2087884;28;20512;-43
2022/03/18 03:04:07;;;;;;;;;;;;;;;;;;2087323;28;20270;-47
2022/03/18 03:07:59;;;;;;;;;;;;;;;;;;2087060;28;20385;-50
2022/03/18 03:09:00;;;;;;;;;;;;;;;;;;2088520;28;20023;-47
2022/03/18 03:10:01;;;;;;;;;;;;;;;;;;2088417;28;20020;-49
2022/03/18 03:11:03;;;;;;;;;;;;;;;;;;2087953;28;20047;-48
2022/03/18 03:12:03;;;;;;;;;;;;;;;;;;2086711;28;20017;-52
2022/03/18 03:13:06;;;;;;;;;;;;;;;;;;2087626;28;20003;-48
2022/03/18 03:14:08;;;;;;;;;;;;;;;;;;2088046;28;20035;-48
2022/03/18 03:15:10;;;;;;;;;;;;;;;;;;2087908;28;20271;-48
2022/03/18 03:16:11;;;;;;;;;;;;;;;;;;2088609;28;20088;-48
2022/03/18 03:17:12;;;;;;;;;;;;;;;;;;2087064;28;20427;-51
2022/03/18 03:18:14;;;;;;;;;;;;;;;;;;2087691;28;19924;-48
2022/03/18 03:19:15;;;;;;;;;;;;;;;;;;2088195;28;20049;-49
2022/03/18 03:20:16;;;;;;;;;;;;;;;;;;2087271;28;20019;-49
2022/03/18 03:21:17;;;;;;;;;;;;;;;;;;2087965;28;19925;-48
2022/03/18 03:22:18;;;;;;;;;;;;;;;;;;2087115;28;19925;-49
2022/03/18 03:23:21;;;;;;;;;;;;;;;;;;2087754;28;20381;-48
2022/03/18 03:24:22;;;;;;;;;;;;;;;;;;2089447;28;19966;-49
2022/03/18 03:25:23;;;;;;;;;;;;;;;;;;2089642;28;20320;-48
2022/03/18 03:26:24;;;;;;;;;;;;;;;;;;2089263;28;20024;-51
2022/03/18 03:27:26;;;;;;;;;;;;;;;;;;2089328;28;20382;-43
2022/03/18 03:28:27;;;;;;;;;;;;;;;;;;2089481;28;19987;-44
2022/03/18 03:29:28;;;;;;;;;;;;;;;;;;2090306;28;20433;-44
2022/03/18 03:30:29;;;;;;;;;;;;;;;;;;2090502;28;19986;-51
2022/03/18 03:31:30;;;;;;;;;;;;;;;;;;2090665;28;20448;-44
2022/03/18 03:32:31;;;;;;;;;;;;;;;;;;2090738;28;19938;-51
2022/03/18 03:33:33;;;;;;;;;;;;;;;;;;2090978;28;19986;-48
2022/03/18 03:34:34;;;;;;;;;;;;;;;;;;2090634;28;20019;-48
2022/03/18 03:35:35;;;;;;;;;;;;;;;;;;2090120;28;19929;-50
2022/03/18 03:36:37;;;;;;;;;;;;;;;;;;2090462;28;19966;-49
2022/03/18 03:37:38;;;;;;;;;;;;;;;;;;2090437;28;20375;-48
2022/03/18 03:38:39;;;;;;;;;;;;;;;;;;2090505;28;20340;-48
2022/03/18 03:39:40;;;;;;;;;;;;;;;;;;2090475;28;19925;-48
2022/03/18 03:40:43;;;;;;;;;;;;;;;;;;2090525;28;20047;-47
2022/03/18 03:41:44;;;;;;;;;;;;;;;;;;2088710;28;20033;-46
2022/03/18 03:42:45;;;;;;;;;;;;;;;;;;2090627;28;20019;-48
2022/03/18 03:43:46;;;;;;;;;;;;;;;;;;2090755;28;20372;-50
2022/03/18 03:44:48;;;;;;;;;;;;;;;;;;2090232;28;19947;-48
2022/03/18 03:45:49;;;;;;;;;;;;;;;;;;2090657;28;19995;-48
2022/03/18 03:46:50;;;;;;;;;;;;;;;;;;2090427;28;19939;-48
2022/03/18 03:47:51;;;;;;;;;;;;;;;;;;2090412;28;19924;-49
2022/03/18 03:48:52;;;;;;;;;;;;;;;;;;2090672;28;19925;-50
2022/03/18 03:49:53;;;;;;;;;;;;;;;;;;2090423;28;20013;-50
2022/03/18 03:50:55;;;;;;;;;;;;;;;;;;2090391;28;20445;-50
2022/03/18 03:51:56;;;;;;;;;;;;;;;;;;2090064;28;20023;-49
2022/03/18 03:52:57;;;;;;;;;;;;;;;;;;2082426;28;19925;-44
2022/03/18 03:53:58;;;;;;;;;;;;;;;;;;2087610;28;20042;-45
2022/03/18 03:55:00;;;;;;;;;;;;;;;;;;2090603;28;20031;-47
2022/03/18 03:56:01;;;;;;;;;;;;;;;;;;2090372;28;19975;-50
2022/03/18 03:57:02;;;;;;;;;;;;;;;;;;2090076;28;19925;-49
2022/03/18 03:58:03;;;;;;;;;;;;;;;;;;2085832;28;19957;-52
2022/03/18 03:59:04;;;;;;;;;;;;;;;;;;2090322;28;19924;-49
2022/03/18 04:00:05;;;;;;;;;;;;;;;;;;2084056;28;19926;-50
2022/03/18 04:01:06;;;;;;;;;;;;;;;;;;2087200;28;20020;-44
2022/03/18 04:02:08;;;;;;;;;;;;;;;;;;2089750;28;19929;-44
2022/03/18 04:03:09;;;;;;;;;;;;;;;;;;2089372;28;20635;-45
2022/03/18 04:04:10;;;;;;;;;;;;;;;;;;2089386;28;19947;-44
2022/03/18 04:05:12;;;;;;;;;;;;;;;;;;2089481;28;20425;-49
2022/03/18 04:06:13;;;;;;;;;;;;;;;;;;2088185;28;19972;-44
2022/03/18 04:07:14;;;;;;;;;;;;;;;;;;2089068;28;20067;-44
2022/03/18 04:08:16;;;;;;;;;;;;;;;;;;2090427;28;20375;-44
2022/03/18 04:09:17;;;;;;;;;;;;;;;;;;2090248;28;19925;-45
2022/03/18 04:10:19;;;;;;;;;;;;;;;;;;2090390;28;19987;-44
2022/03/18 04:11:20;;;;;;;;;;;;;;;;;;2090471;28;20020;-45
2022/03/18 04:12:21;;;;;;;;;;;;;;;;;;2090412;28;19955;-44
2022/03/18 04:13:22;;;;;;;;;;;;;;;;;;2090300;28;19925;-44
2022/03/18 04:14:23;;;;;;;;;;;;;;;;;;2090763;28;19925;-45
2022/03/18 04:15:24;;;;;;;;;;;;;;;;;;2090553;28;20401;-49
2022/03/18 04:16:26;;;;;;;;;;;;;;;;;;2090162;28;19925;-49
2022/03/18 04:17:27;;;;;;;;;;;;;;;;;;2090502;28;20267;-44
2022/03/18 04:18:28;;;;;;;;;;;;;;;;;;2090074;28;20161;-44
2022/03/18 04:19:30;;;;;;;;;;;;;;;;;;2090400;28;19939;-48
2022/03/18 04:20:33;;;;;;;;;;;;;;;;;;2090525;28;19929;-44
2022/03/18 04:21:34;;;;;;;;;;;;;;;;;;2090226;28;20027;-45
2022/03/18 04:22:35;;;;;;;;;;;;;;;;;;2090179;28;19968;-45
2022/03/18 04:23:36;;;;;;;;;;;;;;;;;;2090304;28;20012;-44
2022/03/18 04:24:37;;;;;;;;;;;;;;;;;;2090400;28;19999;-44
2022/03/18 04:25:40;;;;;;;;;;;;;;;;;;2090214;28;20449;-44
2022/03/18 04:26:41;;;;;;;;;;;;;;;;;;2090326;28;20437;-45
2022/03/18 04:27:42;;;;;;;;;;;;;;;;;;2090326;28;20298;-49
2022/03/18 04:28:44;;;;;;;;;;;;;;;;;;2090206;28;20036;-51
2022/03/18 04:29:45;;;;;;;;;;;;;;;;;;2090501;28;19929;-45
2022/03/18 04:30:46;;;;;;;;;;;;;;;;;;2090529;28;20054;-49
2022/03/18 04:31:47;;;;;;;;;;;;;;;;;;2090104;28;20007;-50
2022/03/18 04:32:48;;;;;;;;;;;;;;;;;;2090297;28;20381;-48
2022/03/18 04:33:50;;;;;;;;;;;;;;;;;;2090252;28;19925;-51
2022/03/18 04:34:51;;;;;;;;;;;;;;;;;;2090293;28;20326;-49
2022/03/18 04:35:52;;;;;;;;;;;;;;;;;;2089715;28;19940;-48
2022/03/18 04:36:53;;;;;;;;;;;;;;;;;;2090327;28;20012;-45
2022/03/18 04:37:54;;;;;;;;;;;;;;;;;;2090239;28;20003;-44
2022/03/18 04:38:56;;;;;;;;;;;;;;;;;;2090202;28;19978;-44
2022/03/18 04:39:57;;;;;;;;;;;;;;;;;;2090465;28;20019;-44
2022/03/18 04:40:58;;;;;;;;;;;;;;;;;;2090139;28;20321;-44
2022/03/18 04:41:59;;;;;;;;;;;;;;;;;;2089895;28;20548;-44
2022/03/18 04:43:00;;;;;;;;;;;;;;;;;;2090205;28;20019;-44
2022/03/18 04:44:01;;;;;;;;;;;;;;;;;;2090746;28;20023;-49
2022/03/18 04:45:02;;;;;;;;;;;;;;;;;;2090158;28;20405;-50
2022/03/18 04:46:03;;;;;;;;;;;;;;;;;;2090095;28;20024;-50
2022/03/18 04:47:05;;;;;;;;;;;;;;;;;;2090758;28;20374;-48
2022/03/18 04:48:06;;;;;;;;;;;;;;;;;;2090028;28;20008;-48
2022/03/18 04:49:07;;;;;;;;;;;;;;;;;;2090272;28;20003;-49
2022/03/18 04:50:08;;;;;;;;;;;;;;;;;;2090163;28;19928;-49
2022/03/18 04:51:10;;;;;;;;;;;;;;;;;;2090165;28;19933;-48
2022/03/18 04:52:10;;;;;;;;;;;;;;;;;;2090064;28;20043;-48
2022/03/18 04:53:12;;;;;;;;;;;;;;;;;;2090134;28;20055;-49
2022/03/18 04:54:13;;;;;;;;;;;;;;;;;;2090053;28;19960;-45
2022/03/18 04:55:14;;;;;;;;;;;;;;;;;;2089570;28;20011;-45
2022/03/18 04:57:31;;;;;;;;;;;;;;;;;;2089170;28;20016;-45
2022/03/18 04:58:32;;;;;;;;;;;;;;;;;;2089837;28;19929;-45
2022/03/18 04:59:34;;;;;;;;;;;;;;;;;;2090175;28;20239;-45
2022/03/18 05:00:36;;;;;;;;;;;;;;;;;;2090057;28;20019;-49
2022/03/18 05:01:37;;;;;;;;;;;;;;;;;;2089855;28;19932;-49
2022/03/18 05:02:39;;;;;;;;;;;;;;;;;;2089567;28;19929;-49
2022/03/18 05:03:40;;;;;;;;;;;;;;;;;;2090047;28;20382;-50
2022/03/18 05:04:42;;;;;;;;;;;;;;;;;;2089656;28;19932;-49
2022/03/18 05:05:43;;;;;;;;;;;;;;;;;;2090350;28;20418;-44
2022/03/18 05:06:44;;;;;;;;;;;;;;;;;;2089902;28;20078;-45
2022/03/18 05:07:45;;;;;;;;;;;;;;;;;;2089916;28;20266;-45
2022/03/18 05:08:46;;;;;;;;;;;;;;;;;;2090087;28;20160;-44
2022/03/18 05:09:47;;;;;;;;;;;;;;;;;;2090065;28;19924;-49
2022/03/18 05:10:48;;;;;;;;;;;;;;;;;;2090132;28;19929;-45
2022/03/18 05:11:49;;;;;;;;;;;;;;;;;;2090164;28;20335;-45
2022/03/18 05:12:52;;;;;;;;;;;;;;;;;;2089765;28;20021;-44
2022/03/18 05:13:53;;;;;;;;;;;;;;;;;;2090725;28;19932;-43
2022/03/18 05:14:55;;;;;;;;;;;;;;;;;;2090019;28;19925;-45
2022/03/18 05:15:56;;;;;;;;;;;;;;;;;;2089998;28;19925;-45
2022/03/18 05:16:57;;;;;;;;;;;;;;;;;;2089853;28;20408;-45
2022/03/18 05:17:58;;;;;;;;;;;;;;;;;;2090115;28;20000;-46
2022/03/18 05:19:00;;;;;;;;;;;;;;;;;;2089899;28;19925;-45
2022/03/18 05:20:00;;;;;;;;;;;;;;;;;;2090014;28;20019;-49
2022/03/18 05:21:02;;;;;;;;;;;;;;;;;;2090131;28;20444;-45
2022/03/18 05:22:03;;;;;;;;;;;;;;;;;;2089598;28;19970;-44
2022/03/18 05:23:04;;;;;;;;;;;;;;;;;;2090027;28;19975;-45
2022/03/18 05:24:06;;;;;;;;;;;;;;;;;;2090342;28;20363;-45
2022/03/18 05:25:07;;;;;;;;;;;;;;;;;;2090245;28;19975;-50
2022/03/18 05:26:08;;;;;;;;;;;;;;;;;;2090154;28;20003;-44
2022/03/18 05:27:10;;;;;;;;;;;;;;;;;;2089947;28;20314;-46
2022/03/18 05:28:10;;;;;;;;;;;;;;;;;;2089879;28;19932;-45
2022/03/18 05:29:13;;;;;;;;;;;;;;;;;;2090237;28;19979;-49
2022/03/18 05:30:14;;;;;;;;;;;;;;;;;;2089992;28;20007;-49
2022/03/18 05:31:16;;;;;;;;;;;;;;;;;;2089860;28;19960;-49
2022/03/18 05:32:17;;;;;;;;;;;;;;;;;;2090129;28;19932;-48
2022/03/18 05:33:19;;;;;;;;;;;;;;;;;;2089977;28;20293;-48
2022/03/18 05:34:20;;;;;;;;;;;;;;;;;;2090045;28;19974;-48
2022/03/18 05:35:21;;;;;;;;;;;;;;;;;;2089719;28;20448;-49
2022/03/18 05:36:22;;;;;;;;;;;;;;;;;;2089712;28;20007;-48
2022/03/18 05:37:24;;;;;;;;;;;;;;;;;;2089165;28;20024;-49
2022/03/18 05:38:25;;;;;;;;;;;;;;;;;;2089895;28;20066;-52
2022/03/18 05:39:27;;;;;;;;;;;;;;;;;;2089975;28;19963;-49
2022/03/18 05:40:28;;;;;;;;;;;;;;;;;;2090113;28;19932;-48
2022/03/18 05:41:29;;;;;;;;;;;;;;;;;;2089468;28;20285;-49
2022/03/18 05:42:31;;;;;;;;;;;;;;;;;;2089539;28;20314;-49
2022/03/18 05:43:32;;;;;;;;;;;;;;;;;;2090024;28;20275;-50
2022/03/18 05:44:33;;;;;;;;;;;;;;;;;;2089570;28;19975;-48
2022/03/18 05:45:34;;;;;;;;;;;;;;;;;;2090319;28;20054;-50
2022/03/18 05:46:35;;;;;;;;;;;;;;;;;;2089732;28;19968;-45
2022/03/18 05:47:37;;;;;;;;;;;;;;;;;;2089177;28;20012;-45
2022/03/18 05:48:38;;;;;;;;;;;;;;;;;;2089090;28;19932;-49
2022/03/18 05:49:39;;;;;;;;;;;;;;;;;;2089268;28;20054;-49
2022/03/18 05:50:41;;;;;;;;;;;;;;;;;;2088993;28;19932;-49
2022/03/18 05:51:43;;;;;;;;;;;;;;;;;;2088910;28;20378;-50
2022/03/18 05:52:45;;;;;;;;;;;;;;;;;;2088224;28;20357;-50
2022/03/18 05:53:46;;;;;;;;;;;;;;;;;;2088139;28;19999;-49
2022/03/18 05:54:47;;;;;;;;;;;;;;;;;;2088516;28;20015;-45
2022/03/18 05:57:07;;;;;;;;;;;;;;;;;;2086197;28;19943;-49
2022/03/18 05:58:08;;;;;;;;;;;;;;;;;;2088580;28;20024;-45
2022/03/18 05:59:10;;;;;;;;;;;;;;;;;;2088621;28;19968;-46
2022/03/18 06:00:14;;;;;;;;;;;;;;;;;;2088984;28;20023;-52
2022/03/18 06:01:15;;;;;;;;;;;;;;;;;;2089567;28;20015;-51
2022/03/18 06:02:16;;;;;;;;;;;;;;;;;;2089215;28;19924;-49
2022/03/18 06:03:18;;;;;;;;;;;;;;;;;;2089509;28;20366;-48
2022/03/18 06:04:19;;;;;;;;;;;;;;;;;;2089647;28;19931;-49
2022/03/18 06:05:20;;;;;;;;;;;;;;;;;;2089556;28;20294;-49
2022/03/18 06:06:22;;;;;;;;;;;;;;;;;;2089792;28;19928;-45
2022/03/18 06:07:23;;;;;;;;;;;;;;;;;;2089608;28;20007;-45
2022/03/18 06:12:23;;;;;;;;;;;;;;;;;;2089515;28;19925;-49
2022/03/18 06:13:24;;;;;;;;;;;;;;;;;;2090123;28;19925;-49
2022/03/18 06:14:25;;;;;;;;;;;;;;;;;;2089804;28;19925;-45
2022/03/18 06:15:26;;;;;;;;;;;;;;;;;;2089642;28;19925;-44
2022/03/18 06:16:27;;;;;;;;;;;;;;;;;;2089544;28;19924;-48
2022/03/18 06:17:29;;;;;;;;;;;;;;;;;;2089553;28;19963;-46
2022/03/18 06:18:30;;;;;;;;;;;;;;;;;;2089663;28;20022;-44
2022/03/18 06:19:31;;;;;;;;;;;;;;;;;;2089431;28;20398;-44
2022/03/18 06:20:32;;;;;;;;;;;;;;;;;;2088988;28;20384;-48
2022/03/18 06:21:33;;;;;;;;;;;;;;;;;;2089080;28;19929;-45
2022/03/18 06:22:34;;;;;;;;;;;;;;;;;;2088129;28;20293;-48
2022/03/18 06:23:35;;;;;;;;;;;;;;;;;;2087765;28;20113;-50
2022/03/18 06:24:37;;;;;;;;;;;;;;;;;;2085242;28;20305;-51
2022/03/18 06:25:38;;;;;;;;;;;;;;;;;;2088378;28;20358;-49
2022/03/18 06:26:39;;;;;;;;;;;;;;;;;;2087094;28;19972;-48
2022/03/18 06:27:43;;;;;;;;;;;;;;;;;;2088573;28;19960;-49
2022/03/18 06:28:44;;;;;;;;;;;;;;;;;;2087180;28;20010;-48
2022/03/18 06:29:45;;;;;;;;;;;;;;;;;;2087290;28;19931;-48
2022/03/18 06:30:47;;;;;;;;;;;;;;;;;;2088060;28;19937;-49
2022/03/18 06:31:49;;;;;;;;;;;;;;;;;;2088492;28;19972;-45
2022/03/18 06:32:50;;;;;;;;;;;;;;;;;;2088298;28;19986;-45
2022/03/18 06:33:52;;;;;;;;;;;;;;;;;;2088260;28;20050;-45
2022/03/18 06:34:53;;;;;;;;;;;;;;;;;;2087894;28;20012;-45
2022/03/18 06:35:54;;;;;;;;;;;;;;;;;;2088519;28;19931;-49
2022/03/18 06:36:57;;;;;;;;;;;;;;;;;;2087885;28;20008;-49
2022/03/18 06:37:58;;;;;;;;;;;;;;;;;;2087532;28;20044;-49
2022/03/18 06:38:59;;;;;;;;;;;;;;;;;;2087645;28;19933;-48
2022/03/18 06:40:00;;;;;;;;;;;;;;;;;;2088875;28;20359;-45
2022/03/18 06:41:02;;;;;;;;;;;;;;;;;;2088443;28;19924;-44
2022/03/18 06:42:04;;;;;;;;;;;;;;;;;;2087588;28;20290;-50
2022/03/18 06:43:05;;;;;;;;;;;;;;;;;;2086399;28;20042;-49
2022/03/18 06:44:08;;;;;;;;;;;;;;;;;;2088911;28;19931;-51
2022/03/18 06:45:10;;;;;;;;;;;;;;;;;;2087867;28;20019;-44
2022/03/18 06:46:11;;;;;;;;;;;;;;;;;;2087104;28;20012;-45
2022/03/18 06:47:12;;;;;;;;;;;;;;;;;;2088003;28;19974;-45
2022/03/18 06:48:14;;;;;;;;;;;;;;;;;;2088196;28;20011;-44
2022/03/18 06:49:15;;;;;;;;;;;;;;;;;;2088656;28;19960;-50
2022/03/18 06:50:16;;;;;;;;;;;;;;;;;;2088764;28;19931;-45
2022/03/18 06:51:17;;;;;;;;;;;;;;;;;;2087411;28;20420;-44
2022/03/18 06:52:19;;;;;;;;;;;;;;;;;;2088015;28;19971;-49
2022/03/18 06:53:20;;;;;;;;;;;;;;;;;;2087725;28;20374;-48
2022/03/18 06:54:22;;;;;;;;;;;;;;;;;;2087580;28;19932;-49
2022/03/18 06:55:22;;;;;;;;;;;;;;;;;;2081757;28;20011;-49
2022/03/18 06:56:25;;;;;;;;;;;;;;;;;;2085139;28;20011;-51
2022/03/18 06:57:26;;;;;;;;;;;;;;;;;;2086756;28;20395;-44
2022/03/18 06:58:27;;;;;;;;;;;;;;;;;;2089094;28;19924;-45
2022/03/18 06:59:29;;;;;;;;;;;;;;;;;;2088388;28;19933;-44
2022/03/18 07:00:30;;;;;;;;;;;;;;;;;;2089031;28;19931;-49
2022/03/18 07:01:31;;;;;;;;;;;;;;;;;;2089186;28;19991;-44
2022/03/18 07:02:32;;;;;;;;;;;;;;;;;;2088621;28;19932;-51
2022/03/18 07:03:34;;;;;;;;;;;;;;;;;;2088233;28;20442;-50
2022/03/18 07:04:35;;;;;;;;;;;;;;;;;;2088625;28;20389;-44
2022/03/18 07:05:36;;;;;;;;;;;;;;;;;;2088910;28;19960;-44
2022/03/18 07:06:37;;;;;;;;;;;;;;;;;;2088182;28;20409;-44
2022/03/18 07:07:40;;;;;;;;;;;;;;;;;;2085901;28;20075;-48
2022/03/18 07:08:41;;;;;;;;;;;;;;;;;;2082432;28;20020;-49
2022/03/18 07:09:43;;;;;;;;;;;;;;;;;;2082930;28;19973;-51
2022/03/18 07:10:44;;;;;;;;;;;;;;;;;;2087492;28;20023;-49
2022/03/18 07:11:45;;;;;;;;;;;;;;;;;;2086584;28;20011;-49
2022/03/18 07:12:46;;;;;;;;;;;;;;;;;;2088176;28;20282;-51
2022/03/18 07:13:47;;;;;;;;;;;;;;;;;;2088390;28;20369;-45
2022/03/18 07:14:49;;;;;;;;;;;;;;;;;;2088273;28;19947;-44